Time;durP1;ratioP1;P1;durP2;ratioP2;P2;SDS_P1;SDS_P2;PMS_P1;PMS_P2;Temp;Humidity;BMP_temperature;BMP_pressure;BME280_temperature;BME280_humidity;BME280_pressure;Samples;Min_cycle;Max_cycle;Signal;HPM_P1;HPM_P2
2022/09/20 00:00:26;;;;;;;4.33;2.00;;;;;;;8.58;96.79;101834.47;4997584;28;20210;-75
2022/09/20 00:02:51;;;;;;;2.43;1.73;;;;;;;8.54;97.05;101827.47;4993575;28;20208;-75
2022/09/20 00:05:17;;;;;;;3.57;1.77;;;;;;;8.54;96.37;101819.81;4992302;28;20187;-74
2022/09/20 00:07:44;;;;;;;4.93;2.30;;;;;;;8.51;96.95;101822.22;4988180;28;20188;-74
2022/09/20 00:10:09;;;;;;;3.67;1.70;;;;;;;8.48;96.72;101828.88;5001293;28;20203;-75
2022/09/20 00:12:34;;;;;;;6.90;2.30;;;;;;;8.49;96.85;101833.19;4994900;28;20183;-76
2022/09/20 00:15:00;;;;;;;5.13;2.07;;;;;;;8.51;97.14;101836.66;5009734;28;20206;-74
2022/09/20 00:17:25;;;;;;;7.13;2.47;;;;;;;8.49;96.96;101835.72;5008253;28;20199;-73
2022/09/20 00:19:51;;;;;;;7.27;2.50;;;;;;;8.49;96.80;101831.50;5000690;28;20192;-74
2022/09/20 00:22:16;;;;;;;7.87;2.57;;;;;;;8.51;97.83;101835.00;5002318;28;20184;-75
2022/09/20 00:24:42;;;;;;;9.90;2.30;;;;;;;8.56;97.04;101843.72;4997142;28;20202;-74
2022/09/20 00:27:07;;;;;;;4.53;2.50;;;;;;;8.56;97.16;101850.50;4998125;28;20362;-75
2022/09/20 00:29:33;;;;;;;5.13;2.90;;;;;;;8.53;97.29;101845.28;4997864;28;20183;-76
2022/09/20 00:31:58;;;;;;;3.10;2.03;;;;;;;8.57;98.31;101852.25;5001770;28;20223;-75
2022/09/20 00:37:08;;;;;;;6.30;2.40;;;;;;;8.41;99.26;101853.25;5004042;28;20216;-75
2022/09/20 00:39:33;;;;;;;5.87;2.00;;;;;;;8.36;98.04;101858.97;4997907;28;20195;-74
2022/09/20 00:41:58;;;;;;;5.70;2.33;;;;;;;8.30;98.33;101861.25;4997983;28;20364;-76
2022/09/20 00:44:41;;;;;;;4.47;2.17;;;;;;;8.29;98.26;101852.72;4993253;28;20616;-77
2022/09/20 00:47:15;;;;;;;4.27;1.90;;;;;;;8.28;97.52;101858.63;4996702;28;20238;-75
2022/09/20 00:49:41;;;;;;;6.10;2.13;;;;;;;8.22;97.96;101854.91;5001075;28;20726;-76
2022/09/20 00:52:07;;;;;;;8.47;2.57;;;;;;;8.17;97.50;101851.25;4999674;28;20309;-74
2022/09/20 00:54:33;;;;;;;6.73;1.90;;;;;;;8.14;97.64;101852.00;4996933;28;20249;-76
2022/09/20 00:56:58;;;;;;;8.77;2.27;;;;;;;8.11;97.55;101856.09;5001032;28;20223;-74
2022/09/20 00:59:29;;;;;;;7.40;2.10;;;;;;;8.09;96.95;101860.25;5001273;28;20194;-75
2022/09/20 01:02:18;;;;;;;5.90;2.17;;;;;;;8.10;97.17;101859.44;4998022;28;20212;-76
2022/09/20 01:04:47;;;;;;;5.80;2.20;;;;;;;8.11;97.73;101867.16;4999475;28;20180;-75
2022/09/20 01:07:15;;;;;;;6.53;1.90;;;;;;;8.17;97.96;101859.81;5002813;28;20202;-75
2022/09/20 01:09:40;;;;;;;8.10;2.83;;;;;;;8.21;99.00;101859.13;4991984;28;20192;-75
2022/09/20 01:12:12;;;;;;;10.30;2.73;;;;;;;8.19;98.92;101863.28;5002220;28;20563;-75
2022/09/20 01:14:40;;;;;;;9.17;2.80;;;;;;;8.22;99.00;101863.47;4999860;28;20194;-75
2022/09/20 01:17:06;;;;;;;6.73;2.43;;;;;;;8.19;99.13;101860.72;4998185;28;20259;-75
2022/09/20 01:19:46;;;;;;;15.03;4.07;;;;;;;8.24;99.11;101861.84;4997163;28;20211;-76
2022/09/20 01:22:25;;;;;;;12.00;3.30;;;;;;;8.21;99.58;101863.38;4996235;28;20527;-76
2022/09/20 01:25:07;;;;;;;8.47;3.17;;;;;;;8.15;99.38;101860.53;5003931;28;20194;-76
2022/09/20 01:27:48;;;;;;;8.17;2.53;;;;;;;8.15;99.24;101860.53;4998215;28;20187;-77
2022/09/20 01:30:18;;;;;;;4.97;2.20;;;;;;;8.09;99.24;101858.56;4997545;28;20297;-74
2022/09/20 01:33:02;;;;;;;5.30;2.60;;;;;;;8.05;98.96;101860.91;4995118;28;20309;-74
2022/09/20 01:35:28;;;;;;;6.07;2.40;;;;;;;7.96;99.68;101866.47;4998486;28;20219;-77
2022/09/20 01:38:24;;;;;;;8.80;2.23;;;;;;;7.97;98.98;101870.75;4992629;28;20203;-76
2022/09/20 01:41:09;;;;;;;5.27;2.37;;;;;;;7.93;99.06;101868.84;4993371;28;20230;-76
2022/09/20 01:43:41;;;;;;;9.47;3.10;;;;;;;7.88;98.42;101872.88;4995826;28;20192;-76
2022/09/20 01:46:20;;;;;;;5.50;2.40;;;;;;;7.88;98.88;101870.31;4990745;28;20227;-76
2022/09/20 01:48:47;;;;;;;5.90;2.10;;;;;;;7.82;98.18;101877.69;5003077;28;20198;-75
2022/09/20 01:51:32;;;;;;;5.03;2.00;;;;;;;7.77;98.61;101873.19;4983779;28;20274;-75
2022/09/20 01:54:24;;;;;;;4.43;1.90;;;;;;;7.74;98.37;101881.56;4997457;28;20189;-75
2022/09/20 01:57:11;;;;;;;6.93;2.20;;;;;;;7.72;98.72;101883.16;4985861;28;20754;-75
2022/09/20 02:00:06;;;;;;;5.07;1.83;;;;;;;7.69;97.27;101879.63;4991251;28;20199;-76
2022/09/20 02:02:32;;;;;;;5.43;2.13;;;;;;;7.61;97.45;101881.78;4999697;28;20184;-78
2022/09/20 02:05:19;;;;;;;7.10;2.00;;;;;;;7.56;97.91;101880.69;4988067;28;20607;-77
2022/09/20 02:08:38;;;;;;;8.20;2.73;;;;;;;7.49;97.50;101888.84;4993047;28;20591;-77
2022/09/20 02:11:04;;;;;;;9.07;2.80;;;;;;;7.47;97.00;101884.47;4912164;29;20296;-77
2022/09/20 02:13:46;;;;;;;5.57;1.83;;;;;;;7.42;97.36;101894.44;4971264;28;20296;-77
2022/09/20 02:16:39;;;;;;;5.87;2.50;;;;;;;7.43;97.96;101892.78;4991574;28;20206;-77
2022/09/20 02:19:33;;;;;;;9.73;2.50;;;;;;;7.45;98.35;101889.50;4970368;28;20208;-76
2022/09/20 02:22:08;;;;;;;6.07;2.47;;;;;;;7.47;97.97;101887.88;4988459;28;20294;-77
2022/09/20 02:24:45;;;;;;;6.53;2.60;;;;;;;7.45;97.82;101881.84;4989447;28;20269;-75
2022/09/20 02:27:37;;;;;;;7.30;2.77;;;;;;;7.42;97.96;101893.56;4980423;28;20192;-77
2022/09/20 02:30:25;;;;;;;8.10;2.60;;;;;;;7.41;97.68;101882.50;4978124;28;20234;-77
2022/09/20 02:32:59;;;;;;;9.20;2.50;;;;;;;7.39;97.82;101881.56;4980070;28;20263;-76
2022/09/20 02:35:39;;;;;;;7.03;2.57;;;;;;;7.37;97.39;101883.16;4983033;28;20239;-77
2022/09/20 02:38:42;;;;;;;8.57;3.00;;;;;;;7.37;97.42;101893.34;4982524;28;20214;-77
2022/09/20 02:41:32;;;;;;;8.47;2.63;;;;;;;7.41;98.28;101894.38;4978052;28;20295;-73
2022/09/20 02:44:17;;;;;;;5.33;2.67;;;;;;;7.46;98.82;101893.78;4997522;28;20192;-74
2022/09/20 02:47:03;;;;;;;12.50;3.63;;;;;;;7.53;98.91;101895.84;4999706;28;20179;-73
2022/09/20 02:49:34;;;;;;;9.07;3.13;;;;;;;7.55;98.94;101899.31;4987700;28;20184;-75
2022/09/20 02:52:21;;;;;;;8.43;3.43;;;;;;;7.56;99.66;101905.31;4993362;28;20215;-76
2022/09/20 02:55:05;;;;;;;9.00;3.23;;;;;;;7.60;99.89;101904.66;4979944;28;20184;-74
2022/09/20 02:57:41;;;;;;;12.63;4.20;;;;;;;7.64;100.00;101901.47;4985090;28;20224;-74
2022/09/20 03:00:13;;;;;;;10.80;4.80;;;;;;;7.64;100.00;101904.00;4989505;28;20215;-76
2022/09/20 03:03:10;;;;;;;12.33;4.50;;;;;;;7.65;100.00;101905.75;4985159;28;20838;-76
2022/09/20 03:05:52;;;;;;;13.53;4.40;;;;;;;7.64;100.00;101909.09;4985708;28;20202;-74
2022/09/20 03:08:17;;;;;;;8.17;3.50;;;;;;;7.63;100.00;101905.69;4987472;28;20203;-77
2022/09/20 03:11:18;;;;;;;11.10;4.37;;;;;;;7.66;100.00;101910.94;4992171;28;20735;-78
2022/09/20 03:14:11;;;;;;;9.87;4.43;;;;;;;7.69;100.00;101913.59;4988838;28;20207;-76
2022/09/20 03:17:05;;;;;;;9.23;4.70;;;;;;;7.74;100.00;101919.78;4981444;28;20196;-76
2022/09/20 03:19:48;;;;;;;21.13;5.13;;;;;;;7.77;100.00;101921.63;5002267;28;20290;-77
2022/09/20 03:22:36;;;;;;;21.23;5.33;;;;;;;7.79;100.00;101923.44;4996893;28;20188;-77
2022/09/20 03:25:49;;;;;;;20.80;5.30;;;;;;;7.81;100.00;101926.94;4990849;28;20183;-76
2022/09/20 03:28:30;;;;;;;20.70;4.03;;;;;;;7.80;100.00;101924.31;4983217;28;20214;-76
2022/09/20 03:31:33;;;;;;;14.43;4.00;;;;;;;7.79;100.00;101923.44;5004790;28;20233;-76
2022/09/20 03:34:11;;;;;;;11.87;4.10;;;;;;;7.77;100.00;101934.34;5006619;28;20200;-78
2022/09/20 03:36:49;;;;;;;14.67;4.80;;;;;;;7.79;100.00;101935.31;5000730;28;20290;-76
2022/09/20 03:39:25;;;;;;;10.80;4.33;;;;;;;7.78;100.00;101931.03;4999410;28;20325;-75
2022/09/20 03:42:06;;;;;;;9.67;4.20;;;;;;;7.74;100.00;101937.63;4997763;28;20564;-75
2022/09/20 03:44:35;;;;;;;10.73;5.23;;;;;;;7.73;100.00;101935.91;5014706;28;20191;-74
2022/09/20 03:47:37;;;;;;;10.43;5.60;;;;;;;7.72;100.00;101941.81;5003071;28;20198;-76
2022/09/20 03:50:28;;;;;;;10.53;5.40;;;;;;;7.70;100.00;101942.53;5004753;28;20269;-76
2022/09/20 03:53:11;;;;;;;7.13;4.73;;;;;;;7.63;100.00;101940.47;5001767;28;20246;-77
2022/09/20 03:56:24;;;;;;;6.30;5.00;;;;;;;7.61;100.00;101952.28;4994659;28;20222;-75
2022/09/20 03:59:20;;;;;;;7.97;5.40;;;;;;;7.58;100.00;101953.00;4960746;28;20205;-77
2022/09/20 04:02:19;;;;;;;10.93;6.07;;;;;;;7.58;100.00;101955.56;4955537;28;20650;-78
2022/09/20 04:04:57;;;;;;;9.97;5.70;;;;;;;7.52;100.00;101949.28;4996164;28;20874;-77
2022/09/20 04:07:50;;;;;;;12.07;6.57;;;;;;;7.52;100.00;101950.16;5005091;28;20717;-77
2022/09/20 04:10:53;;;;;;;9.63;6.20;;;;;;;7.54;100.00;101946.00;4994343;28;20219;-76
2022/09/20 04:13:49;;;;;;;11.00;6.03;;;;;;;7.52;100.00;101949.28;4997042;28;20290;-77
2022/09/20 04:16:40;;;;;;;13.40;6.50;;;;;;;7.52;100.00;101952.72;5005244;28;20203;-77
2022/09/20 04:19:22;;;;;;;12.47;7.03;;;;;;;7.48;100.00;101962.66;5003792;28;20185;-78
2022/09/20 04:21:54;;;;;;;10.33;6.87;;;;;;;7.45;100.00;101968.47;5004546;28;20226;-76
2022/09/20 04:24:29;;;;;;;19.70;7.33;;;;;;;7.43;100.00;101964.13;4999055;28;20189;-76
2022/09/20 04:27:08;;;;;;;16.70;6.93;;;;;;;7.41;100.00;101971.66;5001749;28;20278;-77
2022/09/20 04:29:56;;;;;;;11.77;6.37;;;;;;;7.42;100.00;101972.56;5000126;28;20665;-76
2022/09/20 04:32:41;;;;;;;8.87;5.90;;;;;;;7.42;100.00;101968.31;4991939;28;20192;-76
2022/09/20 04:38:13;;;;;;;10.00;5.70;;;;;;;7.38;100.00;101968.09;4988595;28;20187;-77
2022/09/20 04:41:26;;;;;;;10.50;5.33;;;;;;;7.37;100.00;101976.56;4999753;28;20226;-76
2022/09/20 04:44:26;;;;;;;10.37;5.80;;;;;;;7.34;100.00;101968.75;5001632;28;20195;-77
2022/09/20 04:47:14;;;;;;;11.43;5.33;;;;;;;7.32;100.00;101978.00;4996116;28;20294;-76
2022/09/20 04:50:23;;;;;;;10.87;5.37;;;;;;;7.37;100.00;101985.06;4999833;28;20200;-77
2022/09/20 04:53:25;;;;;;;11.07;5.60;;;;;;;7.42;100.00;101985.28;5001874;28;20196;-75
2022/09/20 04:56:14;;;;;;;8.50;5.27;;;;;;;7.44;100.00;101989.66;5001901;28;20242;-75
2022/09/20 04:58:47;;;;;;;10.03;5.53;;;;;;;7.42;100.00;101987.84;4982673;28;20214;-77
2022/09/20 05:01:27;;;;;;;8.50;5.10;;;;;;;7.39;100.00;101988.56;4986964;28;20234;-75
2022/09/20 05:04:30;;;;;;;8.57;4.77;;;;;;;7.37;100.00;101999.47;4998010;28;20214;-77
2022/09/20 05:07:17;;;;;;;8.23;4.80;;;;;;;7.36;100.00;101997.72;4997523;28;20207;-76
2022/09/20 05:10:20;;;;;;;10.33;5.10;;;;;;;7.34;100.00;101996.78;4997747;28;20672;-77
2022/09/20 05:12:59;;;;;;;8.40;4.37;;;;;;;7.32;100.00;102000.94;4999252;28;20191;-77
2022/09/20 05:15:58;;;;;;;10.17;4.80;;;;;;;7.26;100.00;101998.94;5002544;28;20223;-74
2022/09/20 05:18:42;;;;;;;6.23;4.10;;;;;;;7.23;100.00;101996.22;5008965;28;20199;-75
2022/09/20 05:21:11;;;;;;;8.07;4.90;;;;;;;7.23;100.00;102003.84;5007979;28;20234;-76
2022/09/20 05:24:06;;;;;;;7.57;4.10;;;;;;;7.26;100.00;102003.13;4997105;28;20250;-76
2022/09/20 05:26:50;;;;;;;7.97;4.03;;;;;;;7.26;100.00;102009.13;4995097;28;20208;-76
2022/09/20 05:29:37;;;;;;;6.07;3.93;;;;;;;7.30;100.00;102017.78;4989542;28;20196;-77
2022/09/20 05:32:18;;;;;;;7.93;3.87;;;;;;;7.33;100.00;102010.31;4992518;28;20235;-74
2022/09/20 05:35:12;;;;;;;6.17;3.90;;;;;;;7.34;100.00;102010.41;5000049;28;20724;-77
2022/09/20 05:38:11;;;;;;;7.13;3.57;;;;;;;7.39;99.81;102011.50;4991622;28;20220;-77
2022/09/20 05:40:46;;;;;;;7.93;3.43;;;;;;;7.40;100.00;102010.69;4982756;28;20223;-76
2022/09/20 05:43:18;;;;;;;6.67;4.17;;;;;;;7.48;100.00;102022.16;4993553;28;20190;-77
2022/09/20 05:46:01;;;;;;;5.83;4.17;;;;;;;7.61;100.00;102023.63;4982315;28;20271;-77
2022/09/20 05:48:55;;;;;;;10.50;4.20;;;;;;;7.82;100.00;102017.03;4990068;28;20226;-77
2022/09/20 05:51:58;;;;;;;8.53;4.60;;;;;;;7.95;100.00;102022.81;4973571;28;20220;-74
2022/09/20 05:54:33;;;;;;;11.03;4.43;;;;;;;8.06;100.00;102019.09;4981008;28;20195;-74
2022/09/20 05:57:14;;;;;;;8.53;4.37;;;;;;;8.16;100.00;102013.63;4990183;28;20207;-76
2022/09/20 06:00:12;;;;;;;10.33;4.30;;;;;;;8.26;100.00;102022.66;4981757;28;20657;-74
2022/09/20 06:02:47;;;;;;;7.20;4.10;;;;;;;8.44;100.00;102026.91;4990668;28;20195;-76
2022/09/20 06:05:18;;;;;;;6.47;4.10;;;;;;;8.60;100.00;102029.41;4980609;28;20278;-76
2022/09/20 06:08:19;;;;;;;6.73;4.43;;;;;;;8.72;100.00;102036.75;4981297;28;20187;-74
2022/09/20 06:10:56;;;;;;;10.33;4.17;;;;;;;8.83;100.00;102036.44;4994445;28;20203;-76
2022/09/20 06:13:51;;;;;;;5.07;4.33;;;;;;;8.96;100.00;102033.63;4994480;28;20196;-75
2022/09/20 06:17:06;;;;;;;9.37;4.67;;;;;;;9.11;100.00;102033.41;4976515;28;20229;-75
2022/09/20 06:19:46;;;;;;;8.47;4.37;;;;;;;9.25;100.00;102030.66;4949879;28;20657;-75
2022/09/20 06:22:20;;;;;;;6.60;3.83;;;;;;;9.40;100.00;102033.88;4985045;28;20225;-75
2022/09/20 06:25:06;;;;;;;6.47;4.40;;;;;;;9.59;100.00;102038.09;4987858;28;20176;-75
2022/09/20 06:27:40;;;;;;;8.73;4.40;;;;;;;9.70;100.00;102042.84;4976106;28;20286;-75
2022/09/20 06:30:15;;;;;;;8.03;4.50;;;;;;;9.84;100.00;102041.75;4994144;28;20736;-77
2022/09/20 06:33:13;;;;;;;9.73;4.57;;;;;;;10.03;100.00;102057.03;4991071;28;20198;-75
2022/09/20 06:35:42;;;;;;;5.37;3.83;;;;;;;10.17;100.00;102049.94;4983980;28;20216;-76
2022/09/20 06:41:27;;;;;;;6.80;4.40;;;;;;;10.45;99.82;102045.97;4986212;28;20223;-76
2022/09/20 06:44:00;;;;;;;8.77;4.27;;;;;;;10.59;99.18;102054.19;4982598;28;20274;-75
2022/09/20 06:46:34;;;;;;;10.20;4.40;;;;;;;10.76;98.69;102050.59;4995689;28;20550;-75
2022/09/20 06:49:02;;;;;;;6.73;3.87;;;;;;;10.91;98.51;102052.03;4986416;28;20574;-77
2022/09/20 06:51:33;;;;;;;6.00;4.10;;;;;;;11.10;97.88;102048.47;4972925;28;20696;-75
2022/09/20 06:53:59;;;;;;;8.63;4.10;;;;;;;11.21;97.57;102052.28;4983659;28;20193;-77
2022/09/20 06:56:28;;;;;;;5.70;3.47;;;;;;;11.33;96.71;102053.59;4994061;28;20255;-77
2022/09/20 06:58:54;;;;;;;11.33;3.73;;;;;;;11.49;96.02;102057.59;4981354;28;20215;-76
2022/09/20 07:01:20;;;;;;;9.10;4.03;;;;;;;11.62;95.22;102055.53;4993958;28;20676;-76
2022/09/20 07:03:45;;;;;;;8.90;3.27;;;;;;;11.71;94.68;102057.53;4991254;28;20558;-75
2022/09/20 07:06:11;;;;;;;9.40;3.87;;;;;;;11.84;94.44;102055.44;4990402;28;20191;-76
2022/09/20 07:08:37;;;;;;;8.90;3.80;;;;;;;12.05;93.80;102055.28;4989543;28;20183;-77
2022/09/20 07:11:10;;;;;;;6.77;3.20;;;;;;;12.19;92.87;102051.44;4994912;28;20688;-77
2022/09/20 07:13:35;;;;;;;8.43;3.37;;;;;;;12.36;91.99;102063.16;4995150;28;20210;-76
2022/09/20 07:16:09;;;;;;;10.93;3.67;;;;;;;12.52;90.78;102061.09;4969581;28;20248;-79
2022/09/20 07:18:34;;;;;;;8.67;2.90;;;;;;;12.72;90.58;102066.88;4980691;28;20204;-77
2022/09/20 07:21:00;;;;;;;5.37;2.70;;;;;;;12.81;89.98;102072.28;4995022;28;20211;-75
2022/09/20 07:23:28;;;;;;;8.33;3.13;;;;;;;12.93;90.16;102070.94;4992478;28;20201;-77
2022/09/20 07:25:58;;;;;;;6.97;2.83;;;;;;;13.06;88.92;102071.31;4994769;28;20203;-79
2022/09/20 07:28:23;;;;;;;7.37;3.13;;;;;;;13.18;87.75;102074.25;4993117;28;20195;-79
2022/09/20 07:30:49;;;;;;;9.77;3.23;;;;;;;13.32;86.98;102070.38;4992902;28;20220;-79
2022/09/20 07:33:20;;;;;;;7.80;3.00;;;;;;;13.53;86.40;102071.81;4990965;28;20187;-79
2022/09/20 07:35:49;;;;;;;9.50;2.97;;;;;;;13.72;85.20;102081.75;4997651;28;20215;-78
2022/09/20 07:38:15;;;;;;;8.57;2.90;;;;;;;13.90;84.83;102073.69;4990718;28;20222;-79
2022/09/20 07:40:41;;;;;;;10.73;2.93;;;;;;;13.99;84.19;102076.47;4990814;28;20282;-78
2022/09/20 07:43:07;;;;;;;7.57;2.73;;;;;;;14.17;83.98;102079.50;4968335;28;20224;-78
2022/09/20 07:45:34;;;;;;;6.30;2.50;;;;;;;14.34;82.75;102084.28;4993291;28;20225;-76
2022/09/20 07:48:04;;;;;;;9.23;2.37;;;;;;;14.46;82.54;102094.00;4997250;28;20679;-76
2022/09/20 07:50:30;;;;;;;7.70;2.33;;;;;;;14.64;80.43;102092.72;4985145;28;20713;-77
2022/09/20 07:52:56;;;;;;;11.50;2.20;;;;;;;14.75;80.64;102090.38;4996901;28;20192;-76
2022/09/20 07:55:22;;;;;;;8.77;2.73;;;;;;;14.82;80.60;102098.28;4997291;28;20187;-77
2022/09/20 07:57:48;;;;;;;5.83;2.33;;;;;;;14.98;78.31;102096.91;4977325;28;20728;-76
2022/09/20 08:00:14;;;;;;;8.80;1.80;;;;;;;15.13;78.33;102100.69;4976332;28;20299;-75
2022/09/20 08:02:39;;;;;;;11.27;2.40;;;;;;;15.39;78.43;102109.00;4972373;28;20215;-74
2022/09/20 08:05:05;;;;;;;8.80;2.37;;;;;;;15.52;78.71;102103.25;4974209;28;20258;-78
2022/09/20 08:07:31;;;;;;;8.50;2.00;;;;;;;15.60;75.83;102109.41;4977412;28;20200;-78
2022/09/20 08:09:56;;;;;;;6.77;2.20;;;;;;;15.83;75.27;102109.00;4971831;28;20223;-76
2022/09/20 08:12:22;;;;;;;6.67;2.03;;;;;;;16.01;74.85;102108.47;5005608;28;20676;-77
2022/09/20 08:14:47;;;;;;;6.73;2.10;;;;;;;16.22;74.16;102101.09;5000939;28;20195;-78
2022/09/20 08:17:13;;;;;;;5.93;2.00;;;;;;;16.38;72.95;102106.53;4979050;28;20221;-77
2022/09/20 08:19:38;;;;;;;8.23;2.20;;;;;;;16.30;70.33;102104.69;4964477;28;20235;-75
2022/09/20 08:22:05;;;;;;;6.80;2.03;;;;;;;16.55;71.14;102107.72;4992550;28;20804;-76
2022/09/20 08:24:31;;;;;;;9.37;2.10;;;;;;;16.75;70.15;102100.22;4994092;28;20800;-75
2022/09/20 08:26:56;;;;;;;8.80;2.00;;;;;;;17.01;70.49;102104.06;4996483;28;20222;-76
2022/09/20 08:29:22;;;;;;;6.27;1.87;;;;;;;17.11;69.62;102111.97;4998887;28;20192;-77
2022/09/20 08:31:47;;;;;;;11.23;2.13;;;;;;;17.21;67.86;102108.66;4993272;28;20622;-77
2022/09/20 08:34:14;;;;;;;9.63;1.97;;;;;;;17.53;69.01;102106.47;4996464;28;20753;-77
2022/09/20 08:36:44;;;;;;;8.90;2.50;;;;;;;17.62;68.85;102107.47;4998428;28;20208;-77
2022/09/20 08:39:10;;;;;;;6.63;1.97;;;;;;;17.47;68.74;102106.41;4999503;28;20186;-77
2022/09/20 08:41:50;;;;;;;9.20;1.90;;;;;;;17.72;66.63;102098.03;4986715;28;20201;-78
2022/09/20 08:44:34;;;;;;;8.63;2.30;;;;;;;18.21;67.41;102101.13;4983756;28;20274;-77
2022/09/20 08:47:06;;;;;;;7.27;1.93;;;;;;;18.20;67.25;102108.91;4988043;28;20202;-74
2022/09/20 08:49:32;;;;;;;9.03;2.20;;;;;;;18.65;62.89;102107.56;4990039;28;20247;-76
2022/09/20 08:52:00;;;;;;;8.53;2.23;;;;;;;18.77;60.33;102107.66;4991690;28;20250;-75
2022/09/20 08:54:28;;;;;;;9.63;1.87;;;;;;;18.94;62.24;102111.22;4986932;28;20316;-75
2022/09/20 08:56:54;;;;;;;8.83;2.00;;;;;;;19.07;60.68;102105.19;4995211;28;20258;-76
2022/09/20 08:59:21;;;;;;;9.40;2.47;;;;;;;19.16;59.17;102110.44;4985527;28;20192;-76
2022/09/20 09:01:49;;;;;;;8.13;1.87;;;;;;;19.24;57.94;102110.50;5001004;28;20595;-76
2022/09/20 09:04:20;;;;;;;8.25;2.05;;;;;;;19.73;57.13;102110.72;4989761;28;20187;-77
2022/09/20 09:06:47;;;;;;;7.15;2.03;;;;;;;20.42;55.85;102110.81;4997313;28;20193;-76
2022/09/20 09:09:24;;;;;;;11.35;2.25;;;;;;;20.48;55.66;102100.38;4988376;28;20183;-77
2022/09/20 09:11:52;;;;;;;10.40;2.33;;;;;;;21.07;53.82;102108.09;4997610;28;20705;-75
2022/09/20 09:17:17;;;;;;;9.63;2.40;;;;;;;24.74;41.98;102094.63;4987393;28;21021;-77
2022/09/20 09:19:49;;;;;;;6.55;2.10;;;;;;;26.99;39.08;102084.94;4963765;28;20340;-76
2022/09/20 09:22:21;;;;;;;7.82;2.25;;;;;;;28.56;35.73;102071.16;4989114;28;20236;-76
2022/09/20 09:25:13;;;;;;;8.38;2.45;;;;;;;29.64;32.97;102076.81;4991690;28;20238;-76
2022/09/20 09:28:07;;;;;;;7.78;2.33;;;;;;;30.83;31.79;102070.00;4984858;28;20666;-75
2022/09/20 09:30:40;;;;;;;7.05;2.33;;;;;;;30.33;31.15;102086.34;4979876;28;20307;-75
2022/09/20 09:33:22;;;;;;;5.22;2.10;;;;;;;27.04;35.62;102100.59;4989874;28;20192;-72
2022/09/20 09:35:59;;;;;;;6.15;2.08;;;;;;;30.03;30.69;102076.06;4979905;28;20253;-72
2022/09/20 09:38:28;;;;;;;5.72;2.03;;;;;;;31.75;28.28;102077.16;4989868;28;20223;-72
2022/09/20 09:40:59;;;;;;;6.35;2.08;;;;;;;32.05;28.72;102074.78;4977554;28;20349;-72
2022/09/20 09:43:30;;;;;;;7.38;2.10;;;;;;;32.77;27.39;102074.53;4979382;28;20208;-72
2022/09/20 09:46:20;;;;;;;6.28;2.17;;;;;;;32.95;27.34;102076.25;4980921;28;20274;-72
2022/09/20 09:48:48;;;;;;;6.32;2.30;;;;;;;33.17;26.03;102081.25;4991497;28;20265;-76
2022/09/20 09:51:19;;;;;;;6.70;2.58;;;;;;;33.88;26.88;102078.16;4984379;28;20289;-76
2022/09/20 09:53:48;;;;;;;5.82;2.10;;;;;;;34.58;24.56;102076.56;4983542;28;20192;-75
2022/09/20 09:56:31;;;;;;;4.82;2.38;;;;;;;34.46;24.98;102079.13;4980422;28;20269;-77
2022/09/20 09:59:18;;;;;;;5.55;1.70;;;;;;;34.12;24.47;102074.91;4979884;28;20188;-77
2022/09/20 10:02:22;;;;;;;4.97;2.10;;;;;;;35.37;23.89;102070.69;4974125;28;20216;-78
2022/09/20 10:05:30;;;;;;;5.93;2.13;;;;;;;35.03;23.33;102076.44;4990759;28;20188;-79
2022/09/20 10:08:36;;;;;;;5.72;2.05;;;;;;;34.48;24.39;102077.25;4916859;29;20197;-77
2022/09/20 10:11:30;;;;;;;4.97;1.75;;;;;;;33.99;25.11;102073.06;4864511;29;20222;-78
2022/09/20 10:14:11;;;;;;;4.22;1.60;;;;;;;32.72;26.63;102083.69;4975802;28;20243;-77
2022/09/20 10:16:51;;;;;;;6.55;2.17;;;;;;;34.82;24.38;102069.78;4990839;28;20245;-79
2022/09/20 10:19:51;;;;;;;7.20;2.10;;;;;;;35.58;23.48;102065.78;4988178;28;20210;-79
2022/09/20 10:22:30;;;;;;;5.18;1.92;;;;;;;36.36;22.20;102068.53;4984076;28;20188;-78
2022/09/20 10:25:22;;;;;;;4.68;1.98;;;;;;;36.96;21.58;102072.28;4989580;28;20231;-77
2022/09/20 10:28:06;;;;;;;4.97;1.90;;;;;;;36.61;22.09;102073.91;4986878;28;20203;-74
2022/09/20 10:31:13;;;;;;;5.15;2.10;;;;;;;37.14;21.79;102076.38;4979394;28;20218;-72
2022/09/20 10:33:54;;;;;;;5.80;2.08;;;;;;;36.52;21.73;102074.53;4979829;28;20278;-73
2022/09/20 10:36:28;;;;;;;5.75;2.55;;;;;;;37.25;20.81;102071.13;4988003;28;20226;-76
2022/09/20 10:39:13;;;;;;;11.00;2.20;;;;;;;37.03;20.42;102071.75;4988531;28;20203;-76
2022/09/20 10:45:00;;;;;;;6.40;1.90;;;;;;;37.80;19.38;102076.81;4990702;28;20193;-76
2022/09/20 10:47:33;;;;;;;4.80;1.90;;;;;;;39.15;18.81;102063.50;4982510;28;20222;-75
2022/09/20 10:50:10;;;;;;;6.65;2.10;;;;;;;38.70;19.07;102064.47;4980026;28;20571;-76
2022/09/20 10:52:42;;;;;;;6.65;1.92;;;;;;;38.28;19.21;102074.94;4988583;28;20538;-76
2022/09/20 10:55:20;;;;;;;4.47;1.88;;;;;;;38.00;19.54;102080.66;4988232;28;20717;-76
2022/09/20 10:58:10;;;;;;;3.70;1.85;;;;;;;38.17;19.14;102073.13;4984442;28;20685;-76
2022/09/20 11:00:40;;;;;;;5.63;2.25;;;;;;;38.73;19.66;102079.44;4992168;28;20569;-75
2022/09/20 11:03:33;;;;;;;3.40;1.77;;;;;;;38.51;18.36;102077.59;4962569;28;20941;-76
2022/09/20 11:06:20;;;;;;;4.85;2.17;;;;;;;38.93;19.45;102084.97;4987919;28;20275;-76
2022/09/20 11:08:50;;;;;;;3.80;1.80;;;;;;;37.44;19.49;102084.84;4982229;28;20274;-75
2022/09/20 11:11:43;;;;;;;4.80;1.92;;;;;;;36.09;20.46;102089.91;4995468;28;20226;-75
2022/09/20 11:14:28;;;;;;;7.20;1.77;;;;;;;31.26;25.63;102100.72;4989495;28;20685;-75
2022/09/20 11:17:08;;;;;;;4.10;1.90;;;;;;;36.35;21.27;102086.38;4981817;28;20219;-75
2022/09/20 11:20:04;;;;;;;5.40;1.95;;;;;;;37.20;20.45;102089.31;4984379;28;20187;-75
2022/09/20 11:22:39;;;;;;;5.05;2.10;;;;;;;37.27;19.79;102085.22;4985539;28;20186;-75
2022/09/20 11:25:23;;;;;;;4.80;2.08;;;;;;;37.84;19.41;102086.31;4980711;28;20224;-75
2022/09/20 11:28:08;;;;;;;5.43;1.70;;;;;;;36.71;20.62;102089.22;4985188;28;20195;-75
2022/09/20 11:30:41;;;;;;;5.38;1.90;;;;;;;36.13;20.83;102085.22;4977318;28;20218;-75
2022/09/20 11:33:19;;;;;;;6.88;2.00;;;;;;;33.22;24.48;102096.03;4989474;28;20199;-74
2022/09/20 11:35:49;;;;;;;6.47;2.00;;;;;;;31.43;26.40;102104.28;4976331;28;20219;-74
2022/09/20 11:38:45;;;;;;;4.25;2.17;;;;;;;30.32;28.35;102106.63;4998134;28;20242;-75
2022/09/20 11:41:19;;;;;;;5.40;1.90;;;;;;;29.42;29.01;102100.53;4998249;28;20587;-75
2022/09/20 11:43:46;;;;;;;4.60;2.05;;;;;;;28.61;31.16;102110.59;4985027;28;20199;-74
2022/09/20 11:46:20;;;;;;;3.95;1.60;;;;;;;28.11;31.14;102114.00;4990750;28;20180;-76
2022/09/20 11:48:59;;;;;;;5.72;1.60;;;;;;;27.46;31.23;102110.78;4987951;28;20199;-74
2022/09/20 11:51:34;;;;;;;4.80;1.58;;;;;;;27.55;31.44;102113.13;4995985;28;20321;-76
2022/09/20 11:54:22;;;;;;;3.90;1.33;;;;;;;27.02;30.21;102121.69;4995613;28;20199;-74
2022/09/20 11:56:55;;;;;;;5.22;1.83;;;;;;;26.98;31.93;102122.66;4982248;28;20263;-76
2022/09/20 11:59:42;;;;;;;4.68;1.50;;;;;;;27.00;32.76;102123.50;4996821;28;20193;-74
2022/09/20 12:02:32;;;;;;;4.00;1.75;;;;;;;26.71;32.17;102114.69;4981491;28;20214;-76
2022/09/20 12:05:00;;;;;;;4.20;1.67;;;;;;;26.48;33.01;102125.72;4999212;28;20189;-76
2022/09/20 12:07:38;;;;;;;5.55;1.60;;;;;;;26.65;32.69;102123.56;4997820;28;20187;-75
2022/09/20 12:10:20;;;;;;;5.35;1.77;;;;;;;26.43;32.22;102125.00;5000158;28;20190;-75
2022/09/20 12:12:49;;;;;;;5.93;1.55;;;;;;;26.23;31.72;102131.63;5000662;28;20211;-76
2022/09/20 12:15:37;;;;;;;6.03;1.55;;;;;;;26.03;32.29;102132.13;4998189;28;20199;-76
2022/09/20 12:18:09;;;;;;;5.95;1.48;;;;;;;26.44;32.72;102134.59;5001861;28;20194;-76
2022/09/20 12:20:34;;;;;;;5.80;1.75;;;;;;;26.23;33.73;102134.25;4993300;28;20286;-76
2022/09/20 12:23:41;;;;;;;4.82;1.65;;;;;;;25.94;34.05;102132.34;5000115;28;20266;-75
2022/09/20 12:26:12;;;;;;;5.25;1.40;;;;;;;26.26;32.40;102131.56;4981757;28;20235;-75
2022/09/20 12:28:43;;;;;;;4.28;1.20;;;;;;;25.91;31.40;102123.63;4994017;28;20195;-76
2022/09/20 12:31:17;;;;;;;4.53;1.50;;;;;;;26.02;31.65;102124.28;4995057;28;20231;-76
2022/09/20 12:34:12;;;;;;;5.35;1.50;;;;;;;25.88;31.95;102131.59;4994643;28;20609;-76